createdAt,value
2023-02-06T00:01:55.546Z,13.57
2023-02-06T00:04:25.011Z,12.33
2023-02-06T00:06:54.613Z,14.83
2023-02-06T00:09:24.421Z,16.60
2023-02-06T00:11:53.932Z,16.33
2023-02-06T00:14:23.566Z,15.87
2023-02-06T00:16:53.118Z,14.50
2023-02-06T00:19:22.880Z,16.40
2023-02-06T00:21:52.601Z,15.93
2023-02-06T00:24:22.365Z,16.35
2023-02-06T00:26:51.991Z,15.20
2023-02-06T00:29:21.713Z,14.50
2023-02-06T00:31:51.201Z,15.03
2023-02-06T00:34:20.939Z,14.07
2023-02-06T00:36:51.890Z,14.30
2023-02-06T00:39:21.433Z,15.10
2023-02-06T00:41:50.928Z,17.87
2023-02-06T00:44:21.554Z,18.57
2023-02-06T00:46:51.686Z,19.75
2023-02-06T00:49:21.163Z,26.87
2023-02-06T00:51:52.594Z,25.87
2023-02-06T00:54:22.365Z,22.35
2023-02-06T00:56:51.942Z,24.00
2023-02-06T00:59:21.657Z,23.03
2023-02-06T01:01:51.169Z,21.83
2023-02-06T01:04:20.920Z,19.23
2023-02-06T01:06:50.541Z,18.90
2023-02-06T01:09:20.386Z,19.57
2023-02-06T01:11:50.547Z,20.13
2023-02-06T01:14:21.434Z,18.98
2023-02-06T01:16:51.094Z,18.87
2023-02-06T01:19:20.761Z,20.67
2023-02-06T01:21:50.319Z,19.97
2023-02-06T01:24:20.096Z,19.60
2023-02-06T01:26:49.578Z,21.20
2023-02-06T01:29:19.866Z,16.63
2023-02-06T01:31:49.426Z,16.27
2023-02-06T01:34:19.212Z,20.23
2023-02-06T01:36:48.862Z,18.50
2023-02-06T01:39:18.619Z,17.65
2023-02-06T01:41:48.092Z,17.33
2023-02-06T01:44:24.469Z,17.48
2023-02-06T01:46:57.089Z,16.97
2023-02-06T01:49:38.957Z,17.73
2023-02-06T01:52:11.924Z,16.43
2023-02-06T01:54:42.499Z,16.67
2023-02-06T02:02:15.144Z,16.47
2023-02-06T02:07:20.014Z,15.53
2023-02-06T02:09:49.630Z,18.47
2023-02-06T02:12:19.637Z,19.03
2023-02-06T02:14:51.542Z,16.90
2023-02-06T02:17:30.037Z,16.37
2023-02-06T02:20:30.720Z,16.57
2023-02-06T02:23:21.127Z,18.40
2023-02-06T02:25:53.649Z,15.37
2023-02-06T02:28:50.290Z,16.37
2023-02-06T02:31:56.741Z,16.97
2023-02-06T02:34:47.420Z,17.33
2023-02-06T02:37:23.694Z,20.07
2023-02-06T02:40:14.649Z,18.40
2023-02-06T02:43:08.696Z,16.07
2023-02-06T02:45:50.114Z,19.97
2023-02-06T02:48:23.128Z,17.95
2023-02-06T02:50:55.163Z,17.50
2023-02-06T02:53:24.947Z,20.67
2023-02-06T02:55:55.931Z,17.87
2023-02-06T02:58:29.760Z,16.25
2023-02-06T03:01:02.371Z,18.63
2023-02-06T03:03:35.751Z,17.57
2023-02-06T03:06:27.330Z,20.00
2023-02-06T03:09:03.576Z,17.52
2023-02-06T03:11:34.769Z,19.33
2023-02-06T03:14:16.780Z,18.32
2023-02-06T03:16:52.268Z,18.00
2023-02-06T03:19:34.303Z,16.77
2023-02-06T03:22:06.285Z,16.67
2023-02-06T03:24:38.806Z,17.50
2023-02-06T03:27:11.637Z,19.07
2023-02-06T03:29:43.578Z,17.27
2023-02-06T03:32:16.383Z,19.13
2023-02-06T03:35:05.561Z,18.63
2023-02-06T03:37:37.637Z,16.77
2023-02-06T03:40:09.304Z,18.23
2023-02-06T03:42:45.539Z,18.43
2023-02-06T03:45:18.405Z,17.97
2023-02-06T03:47:49.898Z,17.47
2023-02-06T03:50:20.327Z,17.80
2023-02-06T03:52:53.005Z,17.53
2023-02-06T03:55:24.628Z,18.40
2023-02-06T03:57:59.880Z,18.87
2023-02-06T04:00:31.862Z,16.03
2023-02-06T04:03:01.954Z,18.83
2023-02-06T04:05:31.507Z,17.77
2023-02-06T04:08:01.335Z,18.80
2023-02-06T04:10:30.825Z,18.23
2023-02-06T04:13:00.285Z,19.57
2023-02-06T04:15:29.810Z,19.20
2023-02-06T04:18:01.506Z,18.60
2023-02-06T04:22:59.960Z,16.65
2023-02-06T04:25:29.489Z,17.83
2023-02-06T04:27:59.245Z,17.27
2023-02-06T04:30:28.788Z,18.90
2023-02-06T04:32:58.330Z,18.60
2023-02-06T04:35:27.784Z,17.00
2023-02-06T04:37:57.555Z,18.83
2023-02-06T04:40:27.254Z,19.50
2023-02-06T04:42:56.740Z,17.63
2023-02-06T04:45:26.269Z,18.00
2023-02-06T04:47:57.037Z,18.87
2023-02-06T04:52:57.211Z,19.20
2023-02-06T04:55:26.766Z,16.93
2023-02-06T04:57:56.230Z,17.10
2023-02-06T05:00:26.015Z,17.87
2023-02-06T05:02:55.521Z,17.03
2023-02-06T05:05:25.396Z,17.43
2023-02-06T05:07:55.134Z,17.13
2023-02-06T05:10:24.778Z,19.40
2023-02-06T05:12:56.101Z,18.90
2023-02-06T05:15:25.871Z,17.80
2023-02-06T05:17:56.028Z,17.27
2023-02-06T05:20:25.865Z,18.07
2023-02-06T05:22:55.436Z,19.87
2023-02-06T05:25:25.647Z,17.57
2023-02-06T05:27:55.263Z,17.67
2023-02-06T05:30:25.613Z,17.90
2023-02-06T05:32:55.593Z,17.55
2023-02-06T05:35:25.823Z,17.80
2023-02-06T05:37:55.585Z,15.80
2023-02-06T05:40:25.602Z,16.87
2023-02-06T05:42:55.070Z,15.13
2023-02-06T05:45:25.887Z,17.70
2023-02-06T05:50:24.094Z,17.83
2023-02-06T05:52:53.658Z,18.03
2023-02-06T05:55:23.150Z,18.70
2023-02-06T05:57:52.612Z,19.17
2023-02-06T06:00:22.560Z,17.35
2023-02-06T06:02:52.083Z,15.73
2023-02-06T06:05:21.878Z,17.40
2023-02-06T06:07:51.742Z,18.80
2023-02-06T06:10:21.679Z,18.60
2023-02-06T06:12:51.524Z,18.57
2023-02-06T06:15:21.030Z,18.90
2023-02-06T06:17:50.684Z,19.07
2023-02-06T06:20:20.620Z,16.80
2023-02-06T06:22:50.208Z,16.77
2023-02-06T06:25:20.085Z,17.12
2023-02-06T06:27:49.611Z,18.03
2023-02-06T06:30:19.345Z,17.67
2023-02-06T06:32:48.841Z,18.33
2023-02-06T06:35:18.751Z,20.43
2023-02-06T06:37:48.311Z,18.30
2023-02-06T06:40:18.639Z,19.57
2023-02-06T06:42:48.285Z,18.87
2023-02-06T06:45:17.918Z,18.87
2023-02-06T06:47:47.418Z,18.97
2023-02-06T06:50:17.321Z,25.77
2023-02-06T06:52:46.803Z,25.00
2023-02-06T06:55:16.713Z,25.10
2023-02-06T06:57:47.258Z,25.03
2023-02-06T07:00:17.866Z,23.75
2023-02-06T07:02:47.658Z,21.95
2023-02-06T07:05:17.308Z,23.80
2023-02-06T07:07:48.657Z,22.93
2023-02-06T07:10:18.868Z,19.07
2023-02-06T07:12:48.348Z,19.70
2023-02-06T07:15:17.972Z,20.20
2023-02-06T07:17:48.268Z,19.40
2023-02-06T07:20:18.388Z,18.87
2023-02-06T07:22:49.663Z,18.87
2023-02-06T07:25:20.278Z,18.93
2023-02-06T07:27:50.096Z,17.25
2023-02-06T07:30:20.177Z,18.75
2023-02-06T07:32:49.718Z,21.00
2023-02-06T07:35:19.329Z,20.30
2023-02-06T07:37:48.879Z,20.70
2023-02-06T07:40:18.718Z,20.73
2023-02-06T07:42:48.334Z,21.17
2023-02-06T07:45:26.866Z,23.32
2023-02-06T07:47:56.693Z,24.67
2023-02-06T07:50:26.301Z,27.57
2023-02-06T07:52:55.920Z,24.77
2023-02-06T07:55:25.925Z,25.53
2023-02-06T07:57:56.316Z,29.13
2023-02-06T08:00:25.917Z,25.33
2023-02-06T08:02:55.469Z,24.97
2023-02-06T08:05:24.965Z,27.13
2023-02-06T08:07:54.450Z,22.97
2023-02-06T08:10:24.257Z,23.67
2023-02-06T08:12:53.946Z,21.73
2023-02-06T08:15:23.507Z,21.27
2023-02-06T08:17:53.037Z,19.33
2023-02-06T08:20:22.690Z,20.10
2023-02-06T08:22:52.232Z,20.63
2023-02-06T08:25:22.374Z,19.65
2023-02-06T08:27:58.023Z,18.50
2023-02-06T08:30:27.584Z,12.70
2023-02-06T08:32:57.106Z,13.60
2023-02-06T08:35:26.579Z,15.47
2023-02-06T08:37:56.060Z,14.40
2023-02-06T08:40:25.853Z,14.07
2023-02-06T08:42:55.518Z,14.37
2023-02-06T08:45:25.016Z,15.13
2023-02-06T08:47:54.469Z,13.03
2023-02-06T08:50:24.181Z,13.17
2023-02-06T08:52:53.659Z,11.07
2023-02-06T08:55:25.289Z,11.53
2023-02-06T08:57:54.790Z,9.23
2023-02-06T09:00:24.571Z,8.73
2023-02-06T09:02:55.167Z,8.77
2023-02-06T09:05:24.999Z,8.33
2023-02-06T09:07:54.440Z,7.77
2023-02-06T09:10:27.779Z,6.57
2023-02-06T09:12:55.866Z,7.43
2023-02-06T09:15:25.634Z,7.23
2023-02-06T09:17:55.131Z,7.87
2023-02-06T09:20:26.691Z,7.30
2023-02-06T09:22:56.593Z,8.17
2023-02-06T09:25:26.124Z,6.73
2023-02-06T09:27:57.055Z,7.43
2023-02-06T09:32:55.345Z,7.28
2023-02-06T09:35:25.994Z,6.67
2023-02-06T09:37:55.758Z,7.72
2023-02-06T09:40:29.643Z,6.47
2023-02-06T09:43:00.073Z,6.50
2023-02-06T09:45:32.333Z,5.77
2023-02-06T09:48:11.368Z,8.08
2023-02-06T09:50:58.826Z,5.40
2023-02-06T09:53:46.475Z,5.27
2023-02-06T09:56:25.046Z,4.95
2023-02-06T09:59:17.576Z,5.22
2023-02-06T10:02:01.521Z,5.43
2023-02-06T10:04:46.693Z,4.55
2023-02-06T10:07:44.061Z,5.83
2023-02-06T10:10:34.963Z,4.37
2023-02-06T10:13:10.098Z,5.08
2023-02-06T10:15:48.877Z,4.70
2023-02-06T10:18:47.307Z,4.80
2023-02-06T10:21:22.936Z,4.70
2023-02-06T10:23:55.914Z,4.37
2023-02-06T10:26:25.663Z,5.23
2023-02-06T10:28:58.814Z,4.93
2023-02-06T10:31:34.579Z,4.57
2023-02-06T10:34:13.097Z,3.97
2023-02-06T10:37:06.855Z,4.17
2023-02-06T10:39:57.395Z,5.25
2023-02-06T10:42:56.503Z,4.33
2023-02-06T10:45:32.711Z,3.53
2023-02-06T10:48:31.319Z,4.17
2023-02-06T10:51:09.972Z,3.98
2023-02-06T10:53:45.710Z,4.70
2023-02-06T10:56:17.531Z,4.30
2023-02-06T10:58:53.538Z,4.05
2023-02-06T11:01:27.127Z,4.30
2023-02-06T11:04:02.798Z,3.80
2023-02-06T11:06:33.999Z,2.83
2023-02-06T11:09:04.311Z,2.85
2023-02-06T11:11:37.429Z,2.98
2023-02-06T11:14:18.428Z,2.60
2023-02-06T11:16:48.557Z,2.50
2023-02-06T11:19:24.161Z,1.97
2023-02-06T11:22:07.238Z,1.70
2023-02-06T11:24:38.543Z,2.20
2023-02-06T11:27:17.348Z,2.27
2023-02-06T11:29:52.084Z,2.03
2023-02-06T11:32:41.022Z,2.83
2023-02-06T11:35:33.253Z,2.38
2023-02-06T11:38:17.487Z,2.47
2023-02-06T11:40:56.097Z,2.47
2023-02-06T11:43:28.763Z,3.33
2023-02-06T11:46:15.108Z,2.80
2023-02-06T11:48:50.966Z,2.97
2023-02-06T11:51:20.699Z,2.37
2023-02-06T11:54:01.051Z,2.70
2023-02-06T11:56:32.587Z,3.00
2023-02-06T11:59:06.929Z,3.20
2023-02-06T12:01:42.887Z,3.23
2023-02-06T12:04:27.562Z,3.55
2023-02-06T12:07:00.374Z,3.50
2023-02-06T12:09:30.304Z,3.20
2023-02-06T12:12:24.118Z,3.57
2023-02-06T12:14:59.673Z,3.70
2023-02-06T12:17:37.459Z,3.53
2023-02-06T12:20:15.858Z,2.70
2023-02-06T12:22:48.712Z,3.33
2023-02-06T12:25:37.373Z,2.93
2023-02-06T12:28:28.218Z,3.73
2023-02-06T12:31:01.323Z,2.80
2023-02-06T12:33:35.700Z,2.67
2023-02-06T12:36:11.264Z,3.37
2023-02-06T12:38:53.300Z,3.17
2023-02-06T12:41:39.026Z,4.67
2023-02-06T12:44:28.119Z,3.67
2023-02-06T12:47:04.086Z,3.57
2023-02-06T12:49:39.690Z,4.13
2023-02-06T12:52:39.615Z,4.07
2023-02-06T12:55:20.834Z,4.50
2023-02-06T12:57:51.515Z,3.40
2023-02-06T13:00:45.351Z,4.00
2023-02-06T13:03:30.176Z,3.33
2023-02-06T13:06:17.381Z,3.33
2023-02-06T13:08:59.324Z,3.17
2023-02-06T13:11:39.014Z,3.40
2023-02-06T13:14:17.871Z,3.23
2023-02-06T13:16:53.635Z,3.67
2023-02-06T13:19:44.109Z,4.00
2023-02-06T13:22:18.526Z,3.93
2023-02-06T13:24:49.870Z,3.83
2023-02-06T13:27:24.649Z,2.90
2023-02-06T13:29:55.140Z,3.08
2023-02-06T13:32:33.632Z,3.90
2023-02-06T13:35:09.188Z,3.27
2023-02-06T13:37:46.754Z,3.42
2023-02-06T13:40:29.757Z,3.87
2023-02-06T13:43:25.183Z,3.97
2023-02-06T13:46:06.585Z,2.87
2023-02-06T13:48:55.668Z,2.90
2023-02-06T13:51:44.728Z,2.65
2023-02-06T13:54:51.156Z,2.73
2023-02-06T13:57:55.179Z,3.45
2023-02-06T14:00:30.715Z,3.03
2023-02-06T14:03:09.464Z,4.40
2023-02-06T14:06:06.521Z,3.83
2023-02-06T14:08:42.258Z,3.40
2023-02-06T14:11:57.516Z,3.52
2023-02-06T14:14:33.676Z,4.42
2023-02-06T14:17:08.928Z,4.13
2023-02-06T14:19:47.534Z,2.97
2023-02-06T14:22:28.575Z,3.37
2023-02-06T14:25:20.982Z,3.47
2023-02-06T14:28:25.511Z,3.00
2023-02-06T14:31:10.243Z,3.03
2023-02-06T14:33:51.831Z,3.30
2023-02-06T14:36:36.364Z,3.27
2023-02-06T14:39:29.143Z,3.17
2023-02-06T14:41:59.583Z,4.37
2023-02-06T14:44:31.856Z,3.70
2023-02-06T14:47:01.757Z,4.37
2023-02-06T14:49:34.565Z,3.27
2023-02-06T14:52:05.587Z,3.27
2023-02-06T14:57:09.539Z,3.78
2023-02-06T14:59:39.349Z,3.60
2023-02-06T15:02:17.164Z,3.90
2023-02-06T15:04:48.263Z,4.23
2023-02-06T15:07:26.834Z,5.42
2023-02-06T15:10:02.393Z,5.07
2023-02-06T15:12:32.614Z,4.53
2023-02-06T15:15:05.466Z,4.13
2023-02-06T15:17:35.203Z,4.03
2023-02-06T15:20:25.916Z,4.50
2023-02-06T15:23:11.673Z,4.27
2023-02-06T15:25:38.828Z,4.55
2023-02-06T15:28:14.378Z,5.93
2023-02-06T15:30:44.391Z,4.17
2023-02-06T15:33:17.220Z,4.17
2023-02-06T15:35:55.219Z,4.33
2023-02-06T15:38:28.040Z,4.20
2023-02-06T15:41:01.197Z,4.63
2023-02-06T15:43:31.481Z,6.42
2023-02-06T15:46:04.382Z,5.87
2023-02-06T15:48:52.270Z,5.27
2023-02-06T15:51:27.810Z,5.37
2023-02-06T15:54:12.474Z,4.80
2023-02-06T15:56:44.276Z,4.73
2023-02-06T15:59:17.088Z,5.00
2023-02-06T16:01:46.929Z,4.83
2023-02-06T16:04:31.687Z,4.43
2023-02-06T16:07:10.230Z,5.03
2023-02-06T16:09:45.967Z,5.13
2023-02-06T16:12:16.558Z,6.33
2023-02-06T16:15:00.750Z,5.75
2023-02-06T16:17:40.200Z,6.17
2023-02-06T16:20:39.663Z,5.90
2023-02-06T16:23:30.862Z,6.77
2023-02-06T16:26:09.151Z,5.40
2023-02-06T16:28:56.931Z,7.30
2023-02-06T16:31:29.406Z,6.70
2023-02-06T16:34:01.685Z,8.00
2023-02-06T16:36:33.633Z,12.10
2023-02-06T16:39:04.845Z,9.33
2023-02-06T16:41:40.044Z,6.60
2023-02-06T16:44:15.001Z,5.73
2023-02-06T16:46:46.385Z,5.27
2023-02-06T16:49:19.066Z,4.83
2023-02-06T16:51:51.609Z,5.00
2023-02-06T16:54:27.002Z,5.97
2023-02-06T16:56:59.702Z,5.87
2023-02-06T16:59:29.465Z,6.57
2023-02-06T17:01:59.528Z,5.17
2023-02-06T17:04:29.226Z,6.17
2023-02-06T17:06:59.002Z,5.10
2023-02-06T17:09:28.834Z,7.13
2023-02-06T17:11:58.304Z,7.70
2023-02-06T17:14:27.821Z,6.57
2023-02-06T17:16:57.370Z,6.67
2023-02-06T17:19:26.893Z,7.60
2023-02-06T17:21:56.380Z,5.67
2023-02-06T17:24:26.124Z,6.37
2023-02-06T17:26:55.855Z,6.20
2023-02-06T17:29:25.990Z,7.03
2023-02-06T17:31:55.594Z,6.80
2023-02-06T17:34:25.610Z,7.07
2023-02-06T17:36:55.525Z,7.27
2023-02-06T17:39:25.535Z,6.70
2023-02-06T17:41:55.016Z,7.23
2023-02-06T17:44:24.552Z,10.13
2023-02-06T17:46:54.037Z,10.47
2023-02-06T17:49:23.719Z,10.50
2023-02-06T17:51:54.488Z,10.10
2023-02-06T17:54:24.232Z,7.47
2023-02-06T17:56:53.711Z,7.63
2023-02-06T17:59:23.403Z,8.70
2023-02-06T18:01:53.041Z,8.70
2023-02-06T18:04:24.545Z,7.23
2023-02-06T18:06:54.320Z,8.28
2023-02-06T18:09:24.097Z,7.25
2023-02-06T18:11:53.881Z,5.20
2023-02-06T18:14:23.517Z,6.00
2023-02-06T18:16:53.052Z,5.70
2023-02-06T18:19:24.432Z,5.95
2023-02-06T18:24:22.986Z,5.17
2023-02-06T18:26:52.578Z,7.53
2023-02-06T18:29:22.362Z,9.60
2023-02-06T18:31:52.157Z,8.73
2023-02-06T18:34:21.945Z,9.30
2023-02-06T18:36:51.413Z,8.93
2023-02-06T18:39:21.239Z,8.93
2023-02-06T18:42:08.587Z,7.80
2023-02-06T18:44:39.866Z,8.30
2023-02-06T18:47:14.127Z,7.90
2023-02-06T18:49:44.196Z,10.30
2023-02-06T18:52:13.835Z,10.67
2023-02-06T18:54:43.460Z,11.93
2023-02-06T18:57:13.246Z,9.67
2023-02-06T18:59:42.877Z,9.50
2023-02-06T19:02:13.334Z,9.77
2023-02-06T19:04:43.085Z,9.75
2023-02-06T19:07:13.622Z,10.17
2023-02-06T19:09:43.953Z,10.33
2023-02-06T19:12:13.798Z,10.73
2023-02-06T19:14:43.536Z,9.43
2023-02-06T19:17:13.215Z,8.83
2023-02-06T19:19:42.712Z,11.40
2023-02-06T19:22:12.502Z,10.15
2023-02-06T19:24:44.800Z,10.23
2023-02-06T19:27:14.683Z,10.87
2023-02-06T19:29:44.286Z,10.20
2023-02-06T19:32:13.866Z,12.00
2023-02-06T19:34:45.219Z,13.13
2023-02-06T19:37:15.527Z,14.33
2023-02-06T19:39:44.991Z,12.23
2023-02-06T19:42:16.195Z,10.67
2023-02-06T19:44:46.163Z,11.63
2023-02-06T19:47:15.673Z,11.47
2023-02-06T19:49:45.246Z,10.10
2023-02-06T19:52:15.023Z,9.60
2023-02-06T19:54:44.642Z,10.00
2023-02-06T19:57:14.948Z,8.83
2023-02-06T19:59:44.574Z,9.13
2023-02-06T20:02:16.563Z,10.13
2023-02-06T20:04:46.234Z,9.33
2023-02-06T20:07:15.936Z,8.90
2023-02-06T20:09:46.043Z,8.03
2023-02-06T20:12:16.132Z,8.90
2023-02-06T20:14:45.630Z,9.20
2023-02-06T20:17:16.749Z,9.10
2023-02-06T20:19:46.474Z,11.27
2023-02-06T20:22:16.236Z,9.05
2023-02-06T20:24:45.968Z,9.53
2023-02-06T20:27:15.719Z,8.80
2023-02-06T20:29:45.828Z,10.60
2023-02-06T20:32:16.622Z,8.50
2023-02-06T20:34:47.533Z,8.33
2023-02-06T20:39:47.020Z,9.88
2023-02-06T20:42:16.964Z,11.60
2023-02-06T20:44:46.519Z,7.57
2023-02-06T20:47:16.276Z,8.93
2023-02-06T20:49:45.957Z,8.77
2023-02-06T20:52:15.660Z,9.83
2023-02-06T20:54:45.297Z,11.87
2023-02-06T20:57:15.396Z,11.57
2023-02-06T20:59:44.927Z,9.70
2023-02-06T21:02:14.738Z,9.53
2023-02-06T21:04:44.504Z,9.40
2023-02-06T21:07:15.954Z,11.53
2023-02-06T21:09:45.435Z,9.30
2023-02-06T21:12:15.720Z,8.18
2023-02-06T21:14:45.343Z,10.30
2023-02-06T21:17:14.964Z,10.00
2023-02-06T21:19:44.495Z,9.60
2023-02-06T21:22:14.259Z,9.65
2023-02-06T21:24:43.758Z,10.13
2023-02-06T21:27:13.396Z,9.80
2023-02-06T21:29:42.860Z,9.37
2023-02-06T21:32:14.446Z,10.05
2023-02-06T21:37:12.637Z,9.58
2023-02-06T21:39:42.655Z,10.53
2023-02-06T21:42:12.796Z,11.17
2023-02-06T21:44:42.261Z,11.30
2023-02-06T21:47:11.753Z,11.33
2023-02-06T21:49:41.289Z,11.90
2023-02-06T21:52:10.990Z,12.37
2023-02-06T21:54:40.538Z,14.13
2023-02-06T21:57:10.327Z,14.60
2023-02-06T21:59:40.882Z,13.00
2023-02-06T22:02:12.310Z,12.95
2023-02-06T22:04:41.988Z,14.10
2023-02-06T22:07:13.230Z,13.00
2023-02-06T22:09:42.779Z,13.88
2023-02-06T22:12:12.250Z,16.43
2023-02-06T22:14:41.773Z,16.60
2023-02-06T22:17:11.428Z,16.23
2023-02-06T22:19:41.073Z,16.40
2023-02-06T22:22:12.446Z,17.03
2023-02-06T22:24:44.391Z,16.27
2023-02-06T22:27:14.163Z,15.72
2023-02-06T22:29:43.961Z,15.97
2023-02-06T22:32:13.426Z,18.60
2023-02-06T22:34:42.914Z,18.00
2023-02-06T22:37:12.674Z,17.50
2023-02-06T22:39:42.350Z,15.37
2023-02-06T22:42:12.243Z,16.00
2023-02-06T22:44:41.854Z,16.90
2023-02-06T22:47:11.355Z,15.70
2023-02-06T22:49:40.973Z,15.93
2023-02-06T22:52:12.437Z,17.47
2023-02-06T22:57:10.564Z,16.80
2023-02-06T22:59:40.036Z,18.30
2023-02-06T23:02:09.635Z,20.50
2023-02-06T23:04:40.598Z,21.70
2023-02-06T23:07:10.385Z,20.20
2023-02-06T23:09:40.690Z,20.87
2023-02-06T23:12:11.602Z,22.02
2023-02-06T23:14:41.394Z,24.07
2023-02-06T23:17:11.147Z,23.02
2023-02-06T23:19:41.164Z,31.00
2023-02-06T23:22:10.710Z,19.97
2023-02-06T23:24:40.197Z,19.27
2023-02-06T23:27:10.057Z,18.73
2023-02-06T23:29:39.572Z,20.07
2023-02-06T23:32:09.070Z,22.23
2023-02-06T23:34:40.071Z,19.57
2023-02-06T23:37:09.882Z,16.43
2023-02-06T23:39:39.359Z,20.43
2023-02-06T23:42:08.931Z,17.53
2023-02-06T23:44:38.483Z,17.10
2023-02-06T23:47:08.349Z,17.10
2023-02-06T23:49:38.218Z,15.93
2023-02-06T23:52:08.003Z,17.57
2023-02-06T23:54:37.798Z,15.60
2023-02-06T23:57:07.601Z,15.20
2023-02-06T23:59:37.120Z,16.33
